Time;durP1;ratioP1;P1;durP2;ratioP2;P2;SDS_P1;SDS_P2;PMS_P1;PMS_P2;Temp;Humidity;BMP_temperature;BMP_pressure;BME280_temperature;BME280_humidity;BME280_pressure;Samples;Min_cycle;Max_cycle;Signal;HPM_P1;HPM_P2
2023/01/17 08:25:23;;;;;;;43.30;18.42;;;;;;;;;;6305842;28;20405;-59
2023/01/17 08:28:24;;;;;;;43.08;15.48;;;;;;;;;;6293106;28;20051;-60
2023/01/17 08:31:25;;;;;;;58.03;21.02;;;;;;;;;;6290123;28;20052;-60
2023/01/17 08:34:26;;;;;;;34.80;15.88;;;;;;;;;;6309661;28;20044;-60
2023/01/17 08:37:26;;;;;;;42.83;15.32;;;;;;;;;;6290315;28;20118;-60
2023/01/17 08:40:28;;;;;;;36.65;14.55;;;;;;;;;;6290433;28;20728;-60
2023/01/17 08:43:28;;;;;;;36.25;14.18;;;;;;;;;;6288329;28;20040;-61
2023/01/17 08:46:29;;;;;;;37.15;14.88;;;;;;;;;;6289614;28;20059;-61
2023/01/17 08:49:30;;;;;;;32.40;13.68;;;;;;;;;;6287895;28;20119;-60
2023/01/17 08:52:31;;;;;;;33.50;13.07;;;;;;;;;;6287824;28;20503;-61
2023/01/17 08:55:32;;;;;;;31.30;12.57;;;;;;;;;;6291605;28;20051;-61
2023/01/17 08:58:34;;;;;;;28.13;13.07;;;;;;;;;;6290401;28;20040;-60
2023/01/17 09:01:39;;;;;;;28.42;11.65;;;;;;;;;;6288128;28;20521;-60
2023/01/17 09:04:44;;;;;;;30.90;11.85;;;;;;;;;;6298186;28;20044;-60
2023/01/17 09:07:45;;;;;;;35.20;13.18;;;;;;;;;;6288522;28;20063;-60
2023/01/17 09:10:46;;;;;;;37.40;15.43;;;;;;;;;;6290185;28;20159;-61
2023/01/17 09:13:46;;;;;;;31.60;12.60;;;;;;;;;;6288041;28;20497;-60
2023/01/17 09:16:47;;;;;;;32.55;13.43;;;;;;;;;;6288214;28;20459;-60
2023/01/17 09:19:47;;;;;;;38.50;14.13;;;;;;;;;;6286832;28;20049;-60
2023/01/17 09:22:49;;;;;;;36.28;13.02;;;;;;;;;;6284445;28;20558;-61
2023/01/17 09:25:54;;;;;;;41.05;17.33;;;;;;;;;;6286693;28;20051;-60
2023/01/17 09:28:54;;;;;;;35.10;13.85;;;;;;;;;;6286699;28;20056;-60
2023/01/17 09:31:55;;;;;;;38.60;13.45;;;;;;;;;;6285521;28;20055;-60
2023/01/17 09:34:59;;;;;;;31.77;13.43;;;;;;;;;;6278039;28;20041;-60
2023/01/17 09:38:00;;;;;;;35.80;13.80;;;;;;;;;;6269069;28;20045;-60
2023/01/17 09:41:02;;;;;;;28.17;12.68;;;;;;;;;;6269186;28;20056;-60
2023/01/17 09:44:12;;;;;;;30.45;12.80;;;;;;;;;;6268183;28;20052;-61
2023/01/17 09:47:30;;;;;;;31.65;12.18;;;;;;;;;;6271049;28;20041;-60
2023/01/17 09:50:43;;;;;;;30.70;11.65;;;;;;;;;;6268870;28;20052;-60
2023/01/17 09:53:43;;;;;;;31.15;11.38;;;;;;;;;;6275113;28;20329;-60
2023/01/17 09:56:51;;;;;;;30.02;11.25;;;;;;;;;;6284819;28;20045;-60
2023/01/17 10:00:08;;;;;;;24.73;10.48;;;;;;;;;;6290967;28;20061;-59
2023/01/17 10:03:24;;;;;;;23.23;10.52;;;;;;;;;;6289479;28;20426;-60
2023/01/17 10:06:57;;;;;;;37.45;12.95;;;;;;;;;;6290330;28;20051;-61
2023/01/17 10:10:18;;;;;;;23.70;10.57;;;;;;;;;;6282280;28;20083;-61
2023/01/17 10:13:25;;;;;;;26.20;10.93;;;;;;;;;;6273722;28;20084;-61
2023/01/17 10:16:43;;;;;;;26.73;10.55;;;;;;;;;;6268171;28;20048;-60
2023/01/17 10:19:53;;;;;;;27.45;10.07;;;;;;;;;;6266627;28;20053;-61
2023/01/17 10:23:20;;;;;;;22.73;10.43;;;;;;;;;;6266636;28;20095;-60
2023/01/17 10:26:23;;;;;;;27.40;10.70;;;;;;;;;;6264374;28;20045;-60
2023/01/17 10:29:30;;;;;;;24.98;10.68;;;;;;;;;;6265182;28;20048;-61
2023/01/17 10:32:32;;;;;;;25.85;10.52;;;;;;;;;;6266174;28;20067;-61
2023/01/17 10:35:37;;;;;;;33.60;12.10;;;;;;;;;;6265246;28;20037;-60
2023/01/17 10:38:39;;;;;;;26.95;11.25;;;;;;;;;;6265026;28;20056;-60
2023/01/17 10:41:43;;;;;;;28.77;11.45;;;;;;;;;;6280359;28;20045;-60
2023/01/17 10:44:49;;;;;;;25.70;9.93;;;;;;;;;;6282628;28;20056;-60
2023/01/17 10:47:58;;;;;;;22.50;10.13;;;;;;;;;;6285894;28;20070;-60
2023/01/17 10:51:11;;;;;;;28.42;10.07;;;;;;;;;;6281498;28;20483;-59
2023/01/17 10:54:18;;;;;;;;;;;;;;;;;;6278273;28;20072;-60
2023/01/17 10:57:24;;;;;;;24.73;9.43;;;;;;;;;;6286950;28;19926;-60
2023/01/17 11:00:32;;;;;;;23.30;9.07;;;;;;;;;;6281123;28;20495;-60
2023/01/17 11:03:33;;;;;;;22.58;9.75;;;;;;;;;;6285903;28;20480;-60
2023/01/17 11:06:37;;;;;;;20.67;8.27;;;;;;;;;;6288636;28;20059;-60
2023/01/17 11:09:43;;;;;;;19.58;8.40;;;;;;;;;;6285386;28;20048;-59
2023/01/17 11:12:45;;;;;;;17.00;7.63;;;;;;;;;;6287654;28;20048;-59
2023/01/17 11:15:49;;;;;;;16.73;7.78;;;;;;;;;;6290469;28;20048;-59
2023/01/17 11:19:13;;;;;;;23.15;8.52;;;;;;;;;;6283012;28;20055;-60
2023/01/17 11:22:14;;;;;;;18.65;7.57;;;;;;;;;;6280816;28;20074;-60
2023/01/17 11:25:20;;;;;;;22.77;11.05;;;;;;;;;;6291049;28;20060;-59
2023/01/17 11:28:25;;;;;;;17.88;7.35;;;;;;;;;;6278832;28;20179;-60
2023/01/17 11:31:26;;;;;;;18.05;7.05;;;;;;;;;;6282664;28;20403;-60
2023/01/17 11:34:31;;;;;;;15.70;6.78;;;;;;;;;;6285097;28;20234;-61
2023/01/17 11:37:34;;;;;;;18.65;7.82;;;;;;;;;;6258583;28;20076;-60
2023/01/17 11:40:40;;;;;;;15.48;6.63;;;;;;;;;;6260861;28;20099;-60
2023/01/17 11:43:53;;;;;;;20.38;10.00;;;;;;;;;;6249873;28;20111;-60
2023/01/17 11:47:07;;;;;;;17.25;8.45;;;;;;;;;;6250448;28;20086;-59
2023/01/17 11:50:23;;;;;;;14.65;6.03;;;;;;;;;;6256908;28;20045;-60
2023/01/17 11:53:37;;;;;;;18.17;8.32;;;;;;;;;;6250926;28;20048;-61
2023/01/17 11:56:39;;;;;;;13.93;6.30;;;;;;;;;;6247844;28;20059;-60
2023/01/17 11:59:43;;;;;;;14.00;6.05;;;;;;;;;;6251910;28;20056;-60
2023/01/17 12:03:06;;;;;;;11.00;4.80;;;;;;;;;;6253796;28;20060;-59
2023/01/17 12:06:06;;;;;;;;;;;;;;;;;;6258668;28;20045;-59
2023/01/17 12:09:42;;;;;;;13.27;5.95;;;;;;;;;;6259166;28;19998;-59
2023/01/17 12:16:49;;;;;;;13.65;7.18;;;;;;;;;;6249640;28;20529;-60
2023/01/17 12:19:59;;;;;;;10.32;4.72;;;;;;;;;;6248689;28;20041;-60
2023/01/17 12:23:39;;;;;;;13.38;6.03;;;;;;;;;;6254253;28;20053;-60
2023/01/17 12:27:03;;;;;;;21.70;13.30;;;;;;;;;;6249401;28;20053;-60
2023/01/17 12:30:06;;;;;;;27.02;14.85;;;;;;;;;;6248366;28;20553;-60
2023/01/17 12:33:40;;;;;;;10.40;4.15;;;;;;;;;;6250748;28;20126;-60
2023/01/17 12:37:00;;;;;;;9.57;3.85;;;;;;;;;;6247441;28;20098;-60
2023/01/17 12:40:15;;;;;;;8.77;4.55;;;;;;;;;;6251083;28;20067;-59
2023/01/17 12:43:38;;;;;;;10.80;3.80;;;;;;;;;;6254138;28;20049;-60
2023/01/17 12:46:56;;;;;;;8.30;3.70;;;;;;;;;;6253324;28;20052;-60
2023/01/17 12:49:59;;;;;;;8.82;3.83;;;;;;;;;;6249345;28;20049;-60
2023/01/17 12:53:26;;;;;;;10.90;5.43;;;;;;;;;;6247518;28;20048;-60
2023/01/17 12:56:32;;;;;;;11.00;4.40;;;;;;;;;;6253167;28;20502;-60
2023/01/17 12:59:39;;;;;;;9.68;3.88;;;;;;;;;;6255924;28;20550;-59
2023/01/17 13:02:52;;;;;;;20.80;8.30;;;;;;;;;;6256963;28;20427;-60
2023/01/17 13:05:56;;;;;;;19.52;11.30;;;;;;;;;;6255465;28;20079;-59
2023/01/17 13:09:01;;;;;;;18.02;10.65;;;;;;;;;;6257469;28;20056;-59
2023/01/17 13:12:11;;;;;;;8.75;4.22;;;;;;;;;;6259609;28;20060;-59
2023/01/17 13:15:16;;;;;;;11.52;4.88;;;;;;;;;;6260813;28;20870;-60
2023/01/17 13:18:22;;;;;;;12.07;5.50;;;;;;;;;;6257099;28;20056;-60
2023/01/17 13:21:29;;;;;;;7.78;4.28;;;;;;;;;;6255106;28;20455;-60
2023/01/17 13:25:11;;;;;;;11.57;5.50;;;;;;;;;;6255211;28;20625;-59
2023/01/17 13:28:16;;;;;;;8.73;3.88;;;;;;;;;;6251376;28;20056;-60
2023/01/17 13:31:37;;;;;;;9.20;3.80;;;;;;;;;;6260443;28;20512;-59
2023/01/17 13:34:46;;;;;;;13.02;4.65;;;;;;;;;;6260584;28;20049;-59
2023/01/17 13:38:32;;;;;;;13.73;5.43;;;;;;;;;;6258849;28;20047;-60
2023/01/17 13:41:32;;;;;;;16.73;7.03;;;;;;;;;;6153256;28;20181;-60
2023/01/17 13:44:35;;;;;;;19.65;9.00;;;;;;;;;;6183224;28;20511;-60
2023/01/17 13:47:37;;;;;;;;;;;;;;;;;;6253057;28;20045;-59
2023/01/17 13:50:54;;;;;;;8.88;3.65;;;;;;;;;;6253530;28;19931;-60
2023/01/17 13:53:55;;;;;;;6.55;3.30;;;;;;;;;;6253241;28;20045;-60
2023/01/17 13:57:24;;;;;;;8.88;3.58;;;;;;;;;;6251082;28;20076;-60
2023/01/17 14:00:24;;;;;;;7.90;3.47;;;;;;;;;;6252846;28;20056;-60
2023/01/17 14:03:50;;;;;;;8.30;3.22;;;;;;;;;;6251789;28;20507;-60
2023/01/17 14:06:58;;;;;;;7.57;3.78;;;;;;;;;;6251617;28;20463;-60
2023/01/17 14:09:59;;;;;;;12.45;5.03;;;;;;;;;;6254326;28;20049;-60
2023/01/17 14:13:00;;;;;;;11.30;5.07;;;;;;;;;;6257878;28;21294;-60
2023/01/17 14:16:05;;;;;;;16.53;8.07;;;;;;;;;;6258734;28;20049;-60
2023/01/17 14:19:24;;;;;;;21.30;11.93;;;;;;;;;;6260529;28;20049;-60
2023/01/17 14:22:28;;;;;;;7.60;3.40;;;;;;;;;;6255420;28;20455;-60
2023/01/17 14:25:38;;;;;;;8.00;3.47;;;;;;;;;;6253893;28;20079;-60
2023/01/17 14:28:39;;;;;;;9.93;3.88;;;;;;;;;;6254314;28;20036;-61
2023/01/17 14:31:39;;;;;;;14.77;6.63;;;;;;;;;;6253131;28;20052;-60
2023/01/17 14:34:43;;;;;;;26.33;9.55;;;;;;;;;;6255810;28;20107;-61
2023/01/17 14:37:49;;;;;;;40.92;15.70;;;;;;;;;;6256868;28;20099;-60
2023/01/17 14:40:54;;;;;;;24.02;15.18;;;;;;;;;;6257807;28;20048;-61
2023/01/17 14:43:58;;;;;;;20.92;12.82;;;;;;;;;;6253432;28;20076;-61
2023/01/17 14:46:59;;;;;;;33.03;22.42;;;;;;;;;;6250041;28;20722;-61
2023/01/17 14:50:33;;;;;;;24.85;17.70;;;;;;;;;;6254941;28;20052;-60
2023/01/17 14:53:34;;;;;;;11.20;7.18;;;;;;;;;;6251535;28;20060;-60
2023/01/17 14:56:34;;;;;;;19.13;11.55;;;;;;;;;;6256085;28;20123;-60
2023/01/17 14:59:35;;;;;;;18.92;13.25;;;;;;;;;;6256160;28;20141;-59
2023/01/17 15:02:40;;;;;;;15.35;9.02;;;;;;;;;;6251480;28;20053;-60
2023/01/17 15:05:47;;;;;;;11.82;6.85;;;;;;;;;;6249654;28;20056;-60
2023/01/17 15:08:48;;;;;;;16.42;9.60;;;;;;;;;;6248370;28;20092;-60
2023/01/17 15:11:51;;;;;;;19.83;10.57;;;;;;;;;;6251420;28;20072;-59
2023/01/17 15:14:57;;;;;;;17.27;9.45;;;;;;;;;;6251725;28;20080;-59
2023/01/17 15:18:08;;;;;;;19.48;9.77;;;;;;;;;;6247003;28;20048;-59
2023/01/17 15:21:13;;;;;;;20.45;10.35;;;;;;;;;;6251200;28;20049;-59
2023/01/17 15:24:26;;;;;;;19.23;9.93;;;;;;;;;;6251950;28;20592;-60
2023/01/17 15:27:27;;;;;;;18.40;10.88;;;;;;;;;;6248893;28;20691;-59
2023/01/17 15:30:27;;;;;;;17.95;8.55;;;;;;;;;;6247856;28;20060;-59
2023/01/17 15:33:32;;;;;;;17.98;9.30;;;;;;;;;;6250359;28;20080;-60
2023/01/17 15:36:34;;;;;;;11.68;6.03;;;;;;;;;;6249479;28;20060;-59
2023/01/17 15:39:37;;;;;;;24.77;12.30;;;;;;;;;;6249262;28;20045;-59
2023/01/17 15:42:42;;;;;;;25.50;12.48;;;;;;;;;;6247716;28;20060;-59
2023/01/17 15:45:56;;;;;;;17.27;8.27;;;;;;;;;;6248605;28;20917;-59
2023/01/17 15:49:20;;;;;;;39.17;15.65;;;;;;;;;;6248273;28;20151;-59
2023/01/17 15:52:20;;;;;;;70.63;27.23;;;;;;;;;;6252144;28;20056;-59
2023/01/17 15:55:38;;;;;;;26.20;11.50;;;;;;;;;;6255796;28;20076;-59
2023/01/17 15:58:38;;;;;;;26.45;11.60;;;;;;;;;;6259589;28;20049;-58
2023/01/17 16:01:39;;;;;;;57.65;24.38;;;;;;;;;;6255549;28;20549;-58
2023/01/17 16:04:41;;;;;;;84.18;31.42;;;;;;;;;;6256477;28;20056;-59
2023/01/17 16:07:41;;;;;;;77.93;28.33;;;;;;;;;;6255539;28;21013;-58
2023/01/17 16:10:43;;;;;;;74.35;25.38;;;;;;;;;;6257437;28;20052;-58
2023/01/17 16:13:46;;;;;;;59.80;21.83;;;;;;;;;;6256279;28;20160;-58
2023/01/17 16:16:51;;;;;;;58.95;22.50;;;;;;;;;;6254921;28;20048;-58
2023/01/17 16:19:51;;;;;;;58.15;26.80;;;;;;;;;;6257674;28;20041;-58
2023/01/17 16:22:52;;;;;;;63.95;27.48;;;;;;;;;;6257149;28;20618;-58
2023/01/17 16:25:52;;;;;;;68.70;35.05;;;;;;;;;;6259357;28;20574;-57
2023/01/17 16:28:53;;;;;;;75.72;33.33;;;;;;;;;;6254497;28;20057;-58
2023/01/17 16:31:54;;;;;;;94.65;39.85;;;;;;;;;;6256789;28;20049;-57
2023/01/17 16:34:54;;;;;;;77.40;34.50;;;;;;;;;;6256544;28;20509;-56
2023/01/17 16:38:01;;;;;;;122.10;51.47;;;;;;;;;;6256411;28;20096;-58
2023/01/17 16:41:02;;;;;;;91.57;38.25;;;;;;;;;;6255972;28;20423;-59
2023/01/17 16:44:05;;;;;;;78.25;32.60;;;;;;;;;;6258557;28;20100;-59
2023/01/17 16:47:05;;;;;;;69.63;30.13;;;;;;;;;;6262339;28;20044;-59
2023/01/17 16:50:07;;;;;;;74.00;32.88;;;;;;;;;;6267179;28;20507;-58
2023/01/17 16:53:07;;;;;;;98.97;45.05;;;;;;;;;;6264891;28;20067;-58
2023/01/17 16:56:11;;;;;;;86.78;36.70;;;;;;;;;;6262335;28;20794;-54
2023/01/17 16:59:11;;;;;;;85.43;36.65;;;;;;;;;;6261782;28;20048;-58
2023/01/17 17:02:13;;;;;;;88.88;36.78;;;;;;;;;;6262177;28;20367;-56
2023/01/17 17:05:14;;;;;;;82.20;36.08;;;;;;;;;;6261060;28;20049;-55
2023/01/17 17:08:15;;;;;;;53.42;22.48;;;;;;;;;;6260927;28;20089;-54
2023/01/17 17:11:18;;;;;;;49.63;21.00;;;;;;;;;;6262481;28;20049;-56
2023/01/17 17:14:19;;;;;;;57.92;23.25;;;;;;;;;;6261706;28;20045;-55
2023/01/17 17:17:19;;;;;;;60.22;28.73;;;;;;;;;;6259729;28;20045;-54
2023/01/17 17:20:20;;;;;;;75.53;33.47;;;;;;;;;;6258594;28;20140;-57
2023/01/17 17:23:21;;;;;;;66.03;28.77;;;;;;;;;;6263814;28;20064;-55
2023/01/17 17:26:29;;;;;;;80.15;31.50;;;;;;;;;;6259766;28;20123;-56
2023/01/17 17:29:30;;;;;;;126.43;42.30;;;;;;;;;;6257874;28;20048;-57
2023/01/17 17:32:31;;;;;;;91.15;33.60;;;;;;;;;;6254563;28;20136;-57
2023/01/17 17:35:34;;;;;;;72.90;27.85;;;;;;;;;;6253906;28;20061;-57
2023/01/17 17:38:36;;;;;;;80.13;32.20;;;;;;;;;;6253639;28;20049;-59
2023/01/17 17:41:40;;;;;;;78.75;31.67;;;;;;;;;;6259790;28;20257;-58
2023/01/17 17:44:41;;;;;;;79.65;32.92;;;;;;;;;;6256475;28;20414;-57
2023/01/17 17:47:43;;;;;;;77.90;31.83;;;;;;;;;;6263759;28;20052;-57
2023/01/17 17:50:44;;;;;;;73.05;29.25;;;;;;;;;;6267832;28;20419;-57
2023/01/17 17:53:44;;;;;;;77.82;31.15;;;;;;;;;;6263312;28;20057;-57
2023/01/17 17:56:46;;;;;;;91.18;33.92;;;;;;;;;;6263474;28;20139;-58
2023/01/17 17:59:46;;;;;;;104.63;40.20;;;;;;;;;;6267024;28;20052;-55
2023/01/17 18:02:47;;;;;;;223.25;83.20;;;;;;;;;;6267074;28;20080;-58
2023/01/17 18:05:47;;;;;;;281.55;104.22;;;;;;;;;;6258307;28;20487;-57
2023/01/17 18:08:50;;;;;;;240.13;89.75;;;;;;;;;;6268057;28;20621;-56
2023/01/17 18:11:51;;;;;;;228.52;82.97;;;;;;;;;;6262219;28;20051;-54
2023/01/17 18:14:51;;;;;;;171.95;59.33;;;;;;;;;;6266458;28;20052;-55
2023/01/17 18:17:54;;;;;;;125.70;46.05;;;;;;;;;;6263191;28;20095;-55
2023/01/17 18:21:05;;;;;;;128.27;46.47;;;;;;;;;;6255167;28;20049;-60
2023/01/17 18:24:09;;;;;;;110.70;41.35;;;;;;;;;;6257566;28;20932;-57
2023/01/17 18:27:09;;;;;;;126.97;43.50;;;;;;;;;;6250824;28;20049;-57
2023/01/17 18:30:11;;;;;;;121.50;43.78;;;;;;;;;;6254712;28;20066;-56
2023/01/17 18:33:12;;;;;;;139.93;48.67;;;;;;;;;;6257217;28;20041;-56
2023/01/17 18:36:12;;;;;;;101.93;38.17;;;;;;;;;;6252859;28;20052;-56
2023/01/17 18:39:14;;;;;;;118.07;41.22;;;;;;;;;;6256414;28;20112;-57
2023/01/17 18:42:15;;;;;;;102.50;40.03;;;;;;;;;;6256561;28;20646;-56
2023/01/17 18:45:16;;;;;;;109.60;42.10;;;;;;;;;;6260042;28;20102;-56
2023/01/17 18:48:16;;;;;;;107.82;40.17;;;;;;;;;;6254576;28;20139;-56
2023/01/17 18:51:19;;;;;;;136.80;54.03;;;;;;;;;;6254975;28;20855;-56
2023/01/17 18:54:19;;;;;;;130.52;50.95;;;;;;;;;;6253765;28;20491;-59
2023/01/17 18:57:20;;;;;;;155.07;57.80;;;;;;;;;;6253129;28;20095;-58
2023/01/17 19:00:21;;;;;;;149.88;57.33;;;;;;;;;;6253558;28;20049;-57
2023/01/17 19:03:30;;;;;;;127.13;48.15;;;;;;;;;;6256877;28;20061;-57
2023/01/17 19:06:37;;;;;;;122.97;47.20;;;;;;;;;;6256150;28;20480;-58
2023/01/17 19:09:37;;;;;;;124.65;47.92;;;;;;;;;;6251373;28;20053;-56
2023/01/17 19:12:38;;;;;;;117.13;46.63;;;;;;;;;;6254218;28;20120;-57
2023/01/17 19:15:39;;;;;;;114.40;42.92;;;;;;;;;;6248866;28;20536;-57
2023/01/17 19:18:42;;;;;;;83.93;36.07;;;;;;;;;;6254302;28;20447;-57
2023/01/17 19:21:42;;;;;;;90.47;36.33;;;;;;;;;;6254311;28;20053;-57
2023/01/17 19:24:43;;;;;;;73.75;30.58;;;;;;;;;;6255271;28;20896;-56
2023/01/17 19:27:44;;;;;;;71.90;31.27;;;;;;;;;;6253375;28;20049;-57
2023/01/17 19:30:44;;;;;;;73.47;30.65;;;;;;;;;;6250992;28;20396;-58
2023/01/17 19:33:48;;;;;;;70.25;31.83;;;;;;;;;;6252932;28;20530;-56
2023/01/17 19:36:48;;;;;;;81.78;33.30;;;;;;;;;;6251997;28;20053;-58
2023/01/17 19:39:49;;;;;;;80.15;34.55;;;;;;;;;;6251658;28;20060;-57
2023/01/17 19:42:49;;;;;;;90.15;37.78;;;;;;;;;;6252792;28;20045;-56
2023/01/17 19:45:58;;;;;;;78.13;34.55;;;;;;;;;;6252773;28;20049;-58
2023/01/17 19:48:59;;;;;;;97.53;43.45;;;;;;;;;;6252782;28;20053;-57
2023/01/17 19:52:00;;;;;;;94.05;40.88;;;;;;;;;;6259268;28;20102;-56
2023/01/17 19:55:01;;;;;;;84.10;38.47;;;;;;;;;;6262822;28;20052;-57
2023/01/17 19:58:01;;;;;;;95.28;39.72;;;;;;;;;;6256149;28;20129;-56
2023/01/17 20:01:11;;;;;;;104.38;40.08;;;;;;;;;;6264164;28;20044;-57
2023/01/17 20:04:11;;;;;;;122.03;41.78;;;;;;;;;;6262708;28;20060;-56
2023/01/17 20:07:12;;;;;;;127.65;43.95;;;;;;;;;;6258558;28;20099;-56
2023/01/17 20:10:13;;;;;;;117.88;43.00;;;;;;;;;;6263589;28;20102;-55
2023/01/17 20:13:13;;;;;;;108.07;39.60;;;;;;;;;;6260524;28;20049;-57
2023/01/17 20:16:16;;;;;;;122.47;42.38;;;;;;;;;;6261150;28;20389;-57
2023/01/17 20:19:16;;;;;;;114.82;44.63;;;;;;;;;;6263895;28;20514;-57
2023/01/17 20:22:17;;;;;;;123.00;44.00;;;;;;;;;;6264397;28;20052;-58
2023/01/17 20:25:17;;;;;;;123.45;46.63;;;;;;;;;;6265516;28;20060;-54
2023/01/17 20:28:18;;;;;;;117.30;44.50;;;;;;;;;;6263926;28;20064;-54
2023/01/17 20:31:24;;;;;;;129.90;45.33;;;;;;;;;;6266182;28;20098;-56
2023/01/17 20:34:25;;;;;;;113.60;44.97;;;;;;;;;;6262812;28;20057;-58
2023/01/17 20:37:25;;;;;;;113.55;44.08;;;;;;;;;;6261638;28;20045;-56
2023/01/17 20:40:26;;;;;;;116.22;45.28;;;;;;;;;;6265782;28;20087;-55
2023/01/17 20:43:26;;;;;;;118.78;44.33;;;;;;;;;;6263020;28;20064;-56
2023/01/17 20:46:34;;;;;;;125.13;50.17;;;;;;;;;;6257955;28;20532;-58
2023/01/17 20:49:34;;;;;;;111.47;43.05;;;;;;;;;;6259820;28;20156;-56
2023/01/17 20:52:35;;;;;;;113.43;44.95;;;;;;;;;;6261286;28;20072;-57
2023/01/17 20:55:38;;;;;;;152.68;56.58;;;;;;;;;;6263592;28;20052;-57
2023/01/17 20:58:40;;;;;;;156.80;57.70;;;;;;;;;;6264374;28;20747;-57
2023/01/17 21:01:42;;;;;;;152.93;59.10;;;;;;;;;;6265233;28;20053;-58
2023/01/17 21:04:44;;;;;;;156.43;60.60;;;;;;;;;;6261545;28;20049;-57
2023/01/17 21:07:44;;;;;;;170.65;65.57;;;;;;;;;;6258632;28;20041;-56
2023/01/17 21:10:47;;;;;;;169.27;64.72;;;;;;;;;;6255942;28;20075;-57
2023/01/17 21:13:47;;;;;;;154.02;60.53;;;;;;;;;;6252632;28;20049;-55
2023/01/17 21:16:49;;;;;;;141.02;55.85;;;;;;;;;;6249625;28;20433;-58
2023/01/17 21:19:49;;;;;;;134.07;54.05;;;;;;;;;;6253322;28;20076;-57
2023/01/17 21:22:51;;;;;;;127.72;47.70;;;;;;;;;;6247360;28;20628;-56
2023/01/17 21:25:51;;;;;;;129.43;48.40;;;;;;;;;;6244713;28;20057;-56
2023/01/17 21:28:52;;;;;;;130.15;48.83;;;;;;;;;;6247889;28;20645;-56
2023/01/17 21:31:54;;;;;;;125.35;47.25;;;;;;;;;;6250225;28;21961;-55
2023/01/17 21:34:54;;;;;;;149.13;68.32;;;;;;;;;;6252517;28;20056;-56
2023/01/17 21:37:55;;;;;;;131.63;52.83;;;;;;;;;;6250762;28;20506;-56
2023/01/17 21:40:56;;;;;;;219.75;72.50;;;;;;;;;;6253608;28;20128;-57
2023/01/17 21:43:59;;;;;;;146.30;54.33;;;;;;;;;;6250731;28;20052;-59
2023/01/17 21:47:00;;;;;;;151.43;54.75;;;;;;;;;;6249059;28;20530;-56
2023/01/17 21:50:01;;;;;;;139.23;50.78;;;;;;;;;;6252016;28;20076;-57
2023/01/17 21:53:02;;;;;;;140.48;53.20;;;;;;;;;;6254900;28;20122;-57
2023/01/17 21:59:24;;;;;;;124.70;49.65;;;;;;;;;;6253097;28;20049;-55
2023/01/17 22:02:24;;;;;;;117.13;44.92;;;;;;;;;;6252108;28;21276;-55
2023/01/17 22:05:25;;;;;;;116.68;44.65;;;;;;;;;;6251689;28;20559;-56
2023/01/17 22:08:33;;;;;;;127.95;47.08;;;;;;;;;;6249701;28;20052;-58
2023/01/17 22:11:35;;;;;;;171.50;53.25;;;;;;;;;;6251118;28;20053;-55
2023/01/17 22:14:37;;;;;;;281.65;73.75;;;;;;;;;;6251292;28;20499;-56
2023/01/17 22:17:39;;;;;;;219.70;60.17;;;;;;;;;;6250184;28;20052;-56
2023/01/17 22:20:41;;;;;;;231.57;61.75;;;;;;;;;;6253226;28;20079;-57
2023/01/17 22:23:46;;;;;;;101.13;36.43;;;;;;;;;;6250897;28;20068;-58
2023/01/17 22:26:46;;;;;;;96.18;35.72;;;;;;;;;;6251704;28;20049;-57
2023/01/17 22:29:48;;;;;;;96.20;37.35;;;;;;;;;;6251265;28;20191;-56
2023/01/17 22:32:48;;;;;;;84.57;34.60;;;;;;;;;;6255207;28;20054;-57
2023/01/17 22:35:57;;;;;;;122.97;46.05;;;;;;;;;;6250030;28;20063;-55
2023/01/17 22:38:57;;;;;;;140.60;56.63;;;;;;;;;;6249711;28;20102;-57
2023/01/17 22:41:58;;;;;;;137.75;54.00;;;;;;;;;;6255696;28;20479;-54
2023/01/17 22:44:59;;;;;;;106.40;41.63;;;;;;;;;;6251545;28;20182;-57
2023/01/17 22:48:00;;;;;;;95.97;40.47;;;;;;;;;;6248525;28;20991;-55
2023/01/17 22:51:02;;;;;;;94.88;36.97;;;;;;;;;;6250794;28;20495;-56
2023/01/17 22:54:03;;;;;;;100.28;41.10;;;;;;;;;;6250166;28;20526;-57
2023/01/17 22:57:05;;;;;;;87.82;37.95;;;;;;;;;;6249277;28;20049;-55
2023/01/17 23:00:13;;;;;;;72.38;32.17;;;;;;;;;;6251353;28;20147;-57
2023/01/17 23:03:13;;;;;;;68.72;29.23;;;;;;;;;;6252034;28;20087;-56
2023/01/17 23:06:17;;;;;;;67.05;29.27;;;;;;;;;;6249246;28;20475;-56
2023/01/17 23:09:18;;;;;;;71.70;29.42;;;;;;;;;;6249409;28;20099;-56
2023/01/17 23:12:19;;;;;;;175.88;47.25;;;;;;;;;;6250271;28;20139;-56
2023/01/17 23:22:14;;;;;;;519.38;113.22;;;;;;;;;;6248894;28;20053;-58
2023/01/17 23:25:15;;;;;;;355.17;87.72;;;;;;;;;;6250934;28;20492;-56
2023/01/17 23:28:19;;;;;;;349.75;82.43;;;;;;;;;;6252404;28;20053;-57
2023/01/17 23:31:20;;;;;;;281.55;73.80;;;;;;;;;;6250708;28;20099;-55
2023/01/17 23:34:20;;;;;;;176.82;53.03;;;;;;;;;;6249223;28;20053;-56
2023/01/17 23:38:24;;;;;;;100.68;37.38;;;;;;;;;;6248412;28;20487;-54
2023/01/17 23:43:21;;;;;;;90.88;34.67;;;;;;;;;;6250232;28;20049;-57
2023/01/17 23:44:07;;;;;;;87.10;35.45;;;;;;;;;;6248074;28;20396;-56
2023/01/17 23:47:07;;;;;;;90.88;36.53;;;;;;;;;;6250310;28;20132;-55
2023/01/17 23:50:09;;;;;;;86.70;34.85;;;;;;;;;;6253031;28;20049;-55
2023/01/17 23:53:14;;;;;;;88.78;37.25;;;;;;;;;;6248565;28;20408;-55
2023/01/17 23:56:16;;;;;;;87.13;36.20;;;;;;;;;;6248367;28;20040;-54
2023/01/17 23:59:16;;;;;;;82.75;34.45;;;;;;;;;;6253143;28;20053;-57
